Time;durP1;ratioP1;P1;durP2;ratioP2;P2;SDS_P1;SDS_P2;PMS_P1;PMS_P2;Temp;Humidity;BMP_temperature;BMP_pressure;BME280_temperature;BME280_humidity;BME280_pressure;Samples;Min_cycle;Max_cycle;Signal;HPM_P1;HPM_P2
2022/01/31 00:02:23;;;;;;;18.48;4.40;;;4.90;99.90;;;;;;5011865;28;20477;-77
2022/01/31 00:04:49;;;;;;;18.92;4.22;;;4.90;99.90;;;;;;5026932;28;20522;-77
2022/01/31 00:07:15;;;;;;;20.58;4.13;;;4.90;99.90;;;;;;5011850;28;20475;-77
2022/01/31 00:09:42;;;;;;;21.25;4.03;;;4.90;99.90;;;;;;5012329;28;20469;-77
2022/01/31 00:12:14;;;;;;;18.15;4.60;;;4.90;99.90;;;;;;5013095;28;20030;-77
2022/01/31 00:14:45;;;;;;;14.88;4.10;;;4.90;99.90;;;;;;5013044;28;20041;-77
2022/01/31 00:17:12;;;;;;;16.60;4.40;;;4.90;99.90;;;;;;5013829;28;20050;-77
2022/01/31 00:19:39;;;;;;;21.38;4.32;;;4.90;99.90;;;;;;5013377;28;20077;-77
2022/01/31 00:22:06;;;;;;;19.23;4.63;;;4.90;99.90;;;;;;5013664;28;20087;-77
2022/01/31 00:24:33;;;;;;;14.52;4.32;;;5.00;99.90;;;;;;5011507;28;20057;-77
2022/01/31 00:26:59;;;;;;;19.05;3.95;;;4.90;99.90;;;;;;5013237;28;20028;-77
2022/01/31 00:29:25;;;;;;;17.42;4.00;;;4.90;99.90;;;;;;5013388;28;20021;-77
2022/01/31 00:31:50;;;;;;;22.85;5.47;;;5.00;99.90;;;;;;5011498;28;20199;-77
2022/01/31 00:34:16;;;;;;;19.17;4.90;;;5.00;99.90;;;;;;5011758;28;20018;-77
2022/01/31 00:36:42;;;;;;;15.48;4.20;;;5.00;99.90;;;;;;5013257;28;20030;-77
2022/01/31 00:39:07;;;;;;;15.70;3.85;;;5.00;99.90;;;;;;5027969;28;20021;-77
2022/01/31 00:41:33;;;;;;;20.83;4.65;;;5.00;99.90;;;;;;5012584;28;20030;-76
2022/01/31 00:44:02;;;;;;;19.83;4.18;;;5.00;99.90;;;;;;5012551;28;20032;-77
2022/01/31 00:46:40;;;;;;;15.57;4.85;;;5.00;99.90;;;;;;5012168;28;20026;-77
2022/01/31 00:49:12;;;;;;;20.73;5.22;;;4.90;99.90;;;;;;5012457;28;20084;-77
2022/01/31 00:51:37;;;;;;;22.77;4.43;;;4.90;99.90;;;;;;5011521;28;20026;-76
2022/01/31 00:54:03;;;;;;;19.65;4.63;;;4.90;99.90;;;;;;5011983;28;20045;-77
2022/01/31 00:56:28;;;;;;;19.80;4.63;;;4.90;99.90;;;;;;5010790;28;20517;-77
2022/01/31 00:58:54;;;;;;;22.08;4.93;;;4.90;99.90;;;;;;5001392;28;20022;-77
2022/01/31 01:01:19;;;;;;;19.23;4.88;;;4.80;99.90;;;;;;5011741;28;20034;-77
2022/01/31 01:03:45;;;;;;;23.92;4.43;;;4.80;99.90;;;;;;5012752;28;20057;-77
2022/01/31 01:06:10;;;;;;;18.77;4.95;;;4.80;99.90;;;;;;5010282;28;20022;-76
2022/01/31 01:08:37;;;;;;;19.30;5.40;;;4.70;99.90;;;;;;5011673;28;20075;-77
2022/01/31 01:11:03;;;;;;;22.55;5.18;;;4.80;99.90;;;;;;5012118;28;20026;-76
2022/01/31 01:13:28;;;;;;;23.23;4.72;;;4.70;99.90;;;;;;5012009;28;20505;-77
2022/01/31 01:15:54;;;;;;;23.05;5.63;;;4.70;99.90;;;;;;5012161;28;20030;-76
2022/01/31 01:18:19;;;;;;;15.38;4.72;;;4.70;99.90;;;;;;5013359;28;20045;-77
2022/01/31 01:20:45;;;;;;;21.02;5.28;;;4.60;99.90;;;;;;5010095;28;20390;-76
2022/01/31 01:23:10;;;;;;;14.32;4.07;;;4.60;99.90;;;;;;5012607;28;20026;-76
2022/01/31 01:25:36;;;;;;;14.38;4.70;;;4.70;99.90;;;;;;5009731;28;20428;-76
2022/01/31 01:28:01;;;;;;;21.38;5.13;;;4.60;99.90;;;;;;5012114;28;20049;-76
2022/01/31 01:30:27;;;;;;;20.13;5.03;;;4.60;99.90;;;;;;5010497;28;20040;-76
2022/01/31 01:33:04;;;;;;;16.70;4.47;;;4.60;99.90;;;;;;5010020;28;20053;-76
2022/01/31 01:35:33;;;;;;;26.88;5.90;;;4.60;99.90;;;;;;5011564;28;20036;-76
2022/01/31 01:38:05;;;;;;;22.00;5.60;;;4.60;99.90;;;;;;5012570;28;20076;-76
2022/01/31 01:40:32;;;;;;;16.17;6.25;;;4.60;99.90;;;;;;5011790;28;20065;-77
2022/01/31 01:42:57;;;;;;;21.83;6.18;;;4.60;99.90;;;;;;5012605;28;20549;-77
2022/01/31 01:45:25;;;;;;;24.45;6.85;;;4.60;99.90;;;;;;5012294;28;20121;-76
2022/01/31 01:47:50;;;;;;;17.58;5.63;;;4.50;99.90;;;;;;5011859;28;20099;-76
2022/01/31 01:50:16;;;;;;;21.92;6.65;;;4.50;99.90;;;;;;5010821;28;20037;-77
2022/01/31 01:52:42;;;;;;;21.40;6.45;;;4.50;99.90;;;;;;5010039;28;20485;-76
2022/01/31 01:55:08;;;;;;;17.02;6.63;;;4.50;99.90;;;;;;5010687;28;20034;-76
2022/01/31 01:57:33;;;;;;;16.98;5.90;;;4.50;99.90;;;;;;5010353;28;20030;-76
2022/01/31 01:59:59;;;;;;;21.73;6.65;;;4.60;99.90;;;;;;5012687;28;20041;-76
2022/01/31 02:02:24;;;;;;;18.30;7.45;;;4.60;99.90;;;;;;5010461;28;20036;-76
2022/01/31 02:04:50;;;;;;;24.10;6.68;;;4.60;99.90;;;;;;5011204;28;20587;-76
2022/01/31 02:07:17;;;;;;;18.83;6.65;;;4.60;99.90;;;;;;5008944;28;20068;-76
2022/01/31 02:09:45;;;;;;;16.67;6.07;;;4.60;99.90;;;;;;5010857;28;20452;-76
2022/01/31 02:12:11;;;;;;;17.88;6.63;;;4.70;99.90;;;;;;5010492;28;20029;-76
2022/01/31 02:14:37;;;;;;;23.55;7.20;;;4.70;99.90;;;;;;5009484;28;20026;-76
2022/01/31 02:17:03;;;;;;;14.82;5.93;;;4.70;99.90;;;;;;5005933;28;20390;-76
2022/01/31 02:19:29;;;;;;;19.67;7.30;;;4.70;99.90;;;;;;5007766;28;20022;-75
2022/01/31 02:21:55;;;;;;;17.77;6.63;;;4.70;99.90;;;;;;5008750;28;20049;-76
2022/01/31 02:24:21;;;;;;;14.60;5.97;;;4.80;99.90;;;;;;5010447;28;20553;-76
2022/01/31 02:26:47;;;;;;;19.88;7.18;;;4.80;99.90;;;;;;5010228;28;20478;-76
2022/01/31 02:29:12;;;;;;;16.58;6.40;;;4.80;99.90;;;;;;5010277;28;20026;-76
2022/01/31 02:31:45;;;;;;;20.88;7.22;;;4.80;99.90;;;;;;5009708;28;20444;-76
2022/01/31 02:34:11;;;;;;;18.02;7.13;;;4.80;99.90;;;;;;5011759;28;20093;-76
2022/01/31 02:36:38;;;;;;;15.20;7.30;;;4.80;99.90;;;;;;5010963;28;20026;-76
2022/01/31 02:39:05;;;;;;;18.52;6.43;;;4.90;99.90;;;;;;5010695;28;20061;-76
2022/01/31 02:41:31;;;;;;;13.88;6.20;;;4.90;99.90;;;;;;5010193;28;20100;-76
2022/01/31 02:43:57;;;;;;;23.35;6.97;;;4.90;99.90;;;;;;5010485;28;20025;-76
2022/01/31 02:46:26;;;;;;;21.10;7.85;;;5.00;99.90;;;;;;5010478;28;20117;-76
2022/01/31 02:48:53;;;;;;;11.40;4.22;;;5.10;99.90;;;;;;5009451;28;20156;-76
2022/01/31 02:51:24;;;;;;;15.30;5.72;;;5.10;99.90;;;;;;5009731;28;20041;-76
2022/01/31 02:53:49;;;;;;;12.93;4.65;;;5.20;99.90;;;;;;5009426;28;20052;-76
2022/01/31 02:56:15;;;;;;;16.85;5.90;;;5.30;99.90;;;;;;5010845;28;20029;-76
2022/01/31 02:58:40;;;;;;;10.55;4.53;;;5.30;99.90;;;;;;5009658;28;20026;-76
2022/01/31 03:01:06;;;;;;;9.50;3.70;;;5.40;99.90;;;;;;5010074;28;20034;-76
2022/01/31 03:03:31;;;;;;;10.35;3.92;;;5.40;99.90;;;;;;5010271;28;20022;-76
2022/01/31 03:05:57;;;;;;;15.15;3.65;;;5.50;99.90;;;;;;5009369;28;20251;-76
2022/01/31 03:08:24;;;;;;;14.30;4.55;;;5.50;99.90;;;;;;5010838;28;20033;-76
2022/01/31 03:10:50;;;;;;;12.45;4.20;;;5.60;99.90;;;;;;5007784;28;20055;-76
2022/01/31 03:13:15;;;;;;;13.02;3.72;;;5.60;99.90;;;;;;5011613;28;20116;-76
2022/01/31 03:15:41;;;;;;;14.25;4.50;;;5.60;99.90;;;;;;5008376;28;20104;-76
2022/01/31 03:18:07;;;;;;;8.85;3.20;;;5.70;99.90;;;;;;5010436;28;20024;-76
2022/01/31 03:20:32;;;;;;;12.68;4.07;;;5.70;99.90;;;;;;5009687;28;20061;-76
2022/01/31 03:22:59;;;;;;;12.18;4.15;;;5.70;99.90;;;;;;5009417;28;20239;-76
2022/01/31 03:25:25;;;;;;;16.33;3.53;;;5.80;99.90;;;;;;5009063;28;20071;-76
2022/01/31 03:27:50;;;;;;;14.48;3.03;;;5.80;99.90;;;;;;5010933;28;20394;-76
2022/01/31 03:30:21;;;;;;;15.98;3.28;;;5.80;99.90;;;;;;5009064;28;20478;-76
2022/01/31 03:32:48;;;;;;;16.95;3.33;;;5.90;99.90;;;;;;5010712;28;20483;-76
2022/01/31 03:35:14;;;;;;;14.40;2.53;;;5.90;99.90;;;;;;5011271;28;20038;-77
2022/01/31 03:37:40;;;;;;;16.83;2.17;;;6.00;99.90;;;;;;5014403;28;20512;-75
2022/01/31 03:40:07;;;;;;;15.90;2.15;;;6.10;99.90;;;;;;5014401;28;20026;-76
2022/01/31 03:42:33;;;;;;;15.02;3.38;;;6.20;99.90;;;;;;5014478;28;20040;-77
2022/01/31 03:44:59;;;;;;;13.30;1.80;;;6.20;99.90;;;;;;5012646;28;20212;-76
2022/01/31 03:47:25;;;;;;;15.55;1.48;;;6.20;99.90;;;;;;5013409;28;20053;-76
2022/01/31 03:49:51;;;;;;;11.32;1.98;;;6.30;99.90;;;;;;5012345;28;20553;-76
2022/01/31 03:52:17;;;;;;;15.55;2.22;;;6.30;99.90;;;;;;5014586;28;20079;-76
2022/01/31 03:54:43;;;;;;;12.50;1.38;;;6.40;99.90;;;;;;5012761;28;20034;-76
2022/01/31 03:57:09;;;;;;;13.40;1.40;;;6.40;99.90;;;;;;5015305;28;20030;-76
2022/01/31 03:59:35;;;;;;;12.75;0.82;;;6.40;99.90;;;;;;5013788;28;20045;-76
2022/01/31 04:02:02;;;;;;;12.90;1.20;;;6.50;99.90;;;;;;5012036;28;20046;-76
2022/01/31 04:04:28;;;;;;;7.50;0.88;;;6.50;99.90;;;;;;5011948;28;20044;-76
2022/01/31 04:06:54;;;;;;;18.67;1.58;;;6.50;99.90;;;;;;5013467;28;20108;-76
2022/01/31 04:09:19;;;;;;;10.68;0.80;;;6.60;99.90;;;;;;5012700;28;20018;-76
2022/01/31 04:11:45;;;;;;;5.32;0.40;;;6.60;99.90;;;;;;5014300;28;20034;-76
2022/01/31 04:14:11;;;;;;;10.93;1.02;;;6.70;99.90;;;;;;5013043;28;20069;-76
2022/01/31 04:16:37;;;;;;;12.90;1.02;;;6.70;99.90;;;;;;5012487;28;20031;-76
2022/01/31 04:19:02;;;;;;;13.10;1.73;;;6.70;99.90;;;;;;5014039;28;20080;-76
2022/01/31 04:21:28;;;;;;;18.17;1.70;;;6.70;99.90;;;;;;5014076;28;20405;-76
2022/01/31 04:23:54;;;;;;;12.10;1.50;;;6.70;99.90;;;;;;5012342;28;20032;-76
2022/01/31 04:26:20;;;;;;;14.63;0.93;;;6.70;99.90;;;;;;5013889;28;20192;-76
2022/01/31 04:28:49;;;;;;;18.08;1.45;;;6.70;99.90;;;;;;5013934;28;20022;-76
2022/01/31 04:33:45;;;;;;;12.10;0.95;;;6.70;99.90;;;;;;5012745;28;20485;-76
2022/01/31 04:36:14;;;;;;;7.20;1.70;;;6.70;99.90;;;;;;5012782;28;20115;-76
2022/01/31 04:38:43;;;;;;;9.68;1.05;;;6.70;99.90;;;;;;5013499;28;20041;-76
2022/01/31 04:41:09;;;;;;;13.63;0.90;;;6.70;99.90;;;;;;4999742;28;21714;-76
2022/01/31 04:43:35;;;;;;;15.38;1.00;;;6.60;99.90;;;;;;5009845;28;20034;-76
2022/01/31 04:46:04;;;;;;;16.90;2.05;;;6.70;99.90;;;;;;5012406;28;20040;-76
2022/01/31 04:48:29;;;;;;;12.93;0.90;;;6.60;99.90;;;;;;5012655;28;20053;-76
2022/01/31 04:50:55;;;;;;;17.65;1.95;;;6.70;99.90;;;;;;5012121;28;20508;-76
2022/01/31 04:53:20;;;;;;;11.45;0.63;;;6.70;99.90;;;;;;5006451;28;20030;-77
2022/01/31 04:55:46;;;;;;;10.90;1.23;;;6.70;99.90;;;;;;5011824;28;20021;-76
2022/01/31 04:58:12;;;;;;;9.05;1.30;;;6.70;99.90;;;;;;5000684;28;20018;-76
2022/01/31 05:00:38;;;;;;;8.30;0.70;;;6.70;99.90;;;;;;5011437;28;20363;-76
2022/01/31 05:03:09;;;;;;;14.60;0.90;;;6.70;99.90;;;;;;5008645;28;20044;-76
2022/01/31 05:05:36;;;;;;;14.05;1.10;;;6.60;99.90;;;;;;5012000;28;20381;-76
2022/01/31 05:08:01;;;;;;;16.13;0.93;;;6.60;99.90;;;;;;5027092;28;20026;-76
2022/01/31 05:10:27;;;;;;;12.68;1.05;;;6.50;99.90;;;;;;5010735;28;20092;-77
2022/01/31 05:12:52;;;;;;;12.63;1.05;;;6.50;99.90;;;;;;5013598;28;20099;-76
2022/01/31 05:15:18;;;;;;;11.25;0.70;;;6.60;99.90;;;;;;5012428;28;20548;-76
2022/01/31 05:17:43;;;;;;;18.13;1.52;;;6.60;99.90;;;;;;5006537;28;20113;-77
2022/01/31 05:20:09;;;;;;;13.70;1.33;;;6.60;99.90;;;;;;5007485;28;20054;-76
2022/01/31 05:22:35;;;;;;;16.33;0.85;;;6.60;99.90;;;;;;4997195;28;20393;-76
2022/01/31 05:25:00;;;;;;;14.63;1.05;;;6.60;99.90;;;;;;5011248;28;20481;-77
2022/01/31 05:27:26;;;;;;;18.20;1.63;;;6.50;99.90;;;;;;5014726;28;20045;-76
2022/01/31 05:29:51;;;;;;;14.27;1.08;;;6.40;99.90;;;;;;5010926;28;20022;-77
2022/01/31 05:32:17;;;;;;;16.02;0.90;;;6.30;99.90;;;;;;5013516;28;20038;-77
2022/01/31 05:34:42;;;;;;;9.80;0.77;;;6.20;99.90;;;;;;5011898;28;20485;-76
2022/01/31 05:37:08;;;;;;;11.18;1.27;;;6.10;99.90;;;;;;5005790;28;20120;-77
2022/01/31 05:39:33;;;;;;;14.10;0.70;;;6.10;99.90;;;;;;5010889;28;20034;-76
2022/01/31 05:41:59;;;;;;;6.60;0.93;;;6.00;99.90;;;;;;5012256;28;20065;-77
2022/01/31 05:44:26;;;;;;;7.80;1.08;;;5.80;99.90;;;;;;5010931;28;20018;-76
2022/01/31 05:46:52;;;;;;;2.25;0.28;;;5.40;99.90;;;;;;5009003;28;20028;-76
2022/01/31 05:49:18;;;;;;;9.27;0.77;;;5.00;99.90;;;;;;5009299;28;20104;-76
2022/01/31 05:52:04;;;;;;;6.38;0.60;;;4.50;99.90;;;;;;5025791;28;20026;-77
2022/01/31 05:54:31;;;;;;;5.88;0.40;;;4.30;99.90;;;;;;5009842;28;20394;-76
2022/01/31 05:56:58;;;;;;;11.23;0.68;;;4.20;99.90;;;;;;5011304;28;20105;-76
2022/01/31 05:59:24;;;;;;;6.72;0.60;;;4.20;99.90;;;;;;5009726;28;20030;-76
2022/01/31 06:01:50;;;;;;;12.45;1.15;;;4.20;99.90;;;;;;5009273;28;20049;-77
2022/01/31 06:04:16;;;;;;;11.35;3.33;;;4.20;99.90;;;;;;5012646;28;20136;-76
2022/01/31 06:06:41;;;;;;;10.40;1.67;;;4.20;99.90;;;;;;5010066;28;20033;-77
2022/01/31 06:09:07;;;;;;;8.05;0.80;;;4.20;99.90;;;;;;5011989;28;20021;-77
2022/01/31 06:11:34;;;;;;;10.25;0.80;;;4.20;99.90;;;;;;5011450;28;20550;-77
2022/01/31 06:14:07;;;;;;;11.00;0.70;;;4.20;99.90;;;;;;5010921;28;20108;-77
2022/01/31 06:16:32;;;;;;;19.55;1.30;;;4.30;99.90;;;;;;5011443;28;20076;-76
2022/01/31 06:19:05;;;;;;;15.00;1.08;;;4.30;99.90;;;;;;5094372;27;1203425;-76
2022/01/31 06:21:30;;;;;;;19.63;1.92;;;4.40;99.90;;;;;;5106864;28;20038;-76
2022/01/31 06:23:56;;;;;;;11.65;1.30;;;4.40;99.90;;;;;;5084113;28;20029;-76
2022/01/31 06:26:22;;;;;;;15.88;1.75;;;4.40;99.90;;;;;;5084191;28;20411;-76
2022/01/31 06:28:48;;;;;;;17.30;1.85;;;4.50;99.90;;;;;;5087064;28;20036;-77
2022/01/31 06:31:14;;;;;;;16.55;1.98;;;4.60;99.90;;;;;;5083575;28;20416;-76
2022/01/31 06:33:40;;;;;;;22.15;2.35;;;4.60;99.90;;;;;;5075496;28;20392;-77
2022/01/31 06:36:06;;;;;;;13.60;1.70;;;4.60;99.90;;;;;;5087566;28;20032;-78
2022/01/31 06:38:32;;;;;;;12.32;1.38;;;4.70;99.90;;;;;;5085378;28;20511;-77
2022/01/31 06:40:57;;;;;;;17.17;1.00;;;4.70;99.90;;;;;;5088603;28;20032;-77
2022/01/31 06:43:23;;;;;;;16.85;1.48;;;4.70;99.90;;;;;;5087068;28;20094;-76
2022/01/31 06:45:49;;;;;;;18.02;1.70;;;4.70;99.90;;;;;;5083380;28;20028;-77
2022/01/31 06:48:15;;;;;;;16.02;1.58;;;4.80;99.90;;;;;;5071922;28;20032;-77
2022/01/31 06:50:40;;;;;;;20.15;1.98;;;4.80;99.90;;;;;;5075505;28;20032;-76
2022/01/31 06:53:06;;;;;;;18.20;2.13;;;4.80;99.90;;;;;;5085754;28;20035;-76
2022/01/31 06:55:34;;;;;;;18.60;1.60;;;4.80;99.90;;;;;;5091517;28;20048;-76
2022/01/31 06:58:02;;;;;;;18.48;2.17;;;4.80;99.90;;;;;;5098468;28;20036;-77
2022/01/31 07:00:28;;;;;;;15.40;0.90;;;4.80;99.90;;;;;;5091512;28;20017;-76
2022/01/31 07:02:54;;;;;;;16.27;1.40;;;4.70;99.90;;;;;;5088539;28;20032;-76
2022/01/31 07:05:21;;;;;;;19.05;1.20;;;4.70;99.90;;;;;;5083368;28;20024;-76
2022/01/31 07:07:47;;;;;;;14.20;1.58;;;4.70;99.90;;;;;;5072792;28;20078;-76
2022/01/31 07:10:14;;;;;;;15.45;1.00;;;4.70;99.90;;;;;;5083368;28;20433;-77
2022/01/31 07:12:47;;;;;;;18.35;1.63;;;4.70;99.90;;;;;;5080182;28;20108;-76
2022/01/31 07:15:12;;;;;;;26.63;2.00;;;4.70;99.90;;;;;;5075252;28;20017;-77
2022/01/31 07:17:38;;;;;;;22.00;2.10;;;4.70;99.90;;;;;;5075758;28;20048;-77
2022/01/31 07:20:09;;;;;;;17.75;2.33;;;4.70;99.90;;;;;;5087859;28;20026;-77
2022/01/31 07:22:37;;;;;;;21.42;1.60;;;4.70;99.90;;;;;;5088302;28;20024;-77
2022/01/31 07:25:08;;;;;;;20.88;1.88;;;4.70;99.90;;;;;;5087971;28;20480;-77
2022/01/31 07:27:35;;;;;;;11.35;1.30;;;4.70;99.90;;;;;;5082896;28;20044;-76
2022/01/31 07:30:01;;;;;;;11.60;1.52;;;4.70;99.90;;;;;;5074674;28;20025;-76
2022/01/31 07:32:28;;;;;;;16.02;1.58;;;4.70;99.90;;;;;;5073440;28;20036;-76
2022/01/31 07:34:55;;;;;;;8.43;0.50;;;4.70;99.90;;;;;;5073647;28;20086;-76
2022/01/31 07:37:22;;;;;;;11.18;1.08;;;4.70;99.90;;;;;;5082252;28;20086;-76
2022/01/31 07:39:48;;;;;;;18.08;1.83;;;4.70;99.90;;;;;;5073909;28;20017;-75
2022/01/31 07:42:14;;;;;;;15.57;1.85;;;4.70;99.90;;;;;;5073762;28;20052;-76
2022/01/31 07:44:40;;;;;;;22.60;1.95;;;4.60;99.90;;;;;;5066015;28;20021;-76
2022/01/31 07:47:06;;;;;;;22.00;1.13;;;4.70;99.90;;;;;;5075084;28;20545;-76
2022/01/31 07:49:32;;;;;;;15.02;1.55;;;4.70;99.90;;;;;;5073034;28;20021;-75
2022/01/31 07:51:58;;;;;;;9.23;0.82;;;4.60;99.90;;;;;;5061246;28;20400;-75
2022/01/31 07:54:24;;;;;;;13.65;1.23;;;4.70;99.90;;;;;;5070385;28;20032;-75
2022/01/31 07:56:50;;;;;;;12.63;0.73;;;4.70;99.90;;;;;;5073018;28;20597;-76
2022/01/31 07:59:16;;;;;;;16.95;1.10;;;4.70;99.90;;;;;;5067592;28;20465;-77
2022/01/31 08:01:41;;;;;;;10.43;1.05;;;4.70;99.90;;;;;;5066373;28;20024;-77
2022/01/31 08:04:07;;;;;;;21.98;1.45;;;4.70;99.90;;;;;;5073271;28;20039;-77
2022/01/31 08:06:33;;;;;;;7.05;0.57;;;4.70;99.90;;;;;;5064563;28;20021;-76
2022/01/31 08:09:03;;;;;;;15.30;1.33;;;4.70;99.90;;;;;;5070550;28;20103;-78
2022/01/31 08:11:33;;;;;;;12.75;1.00;;;4.70;99.90;;;;;;5073549;28;20078;-75
2022/01/31 08:14:05;;;;;;;18.23;1.88;;;4.70;99.90;;;;;;5073200;28;20035;-77
2022/01/31 08:16:31;;;;;;;20.05;1.88;;;4.70;99.90;;;;;;5063716;28;20131;-74
2022/01/31 08:18:57;;;;;;;17.55;1.33;;;4.70;99.90;;;;;;5073312;28;20053;-76
2022/01/31 08:21:23;;;;;;;19.08;1.20;;;4.70;99.90;;;;;;5061355;28;20055;-76
2022/01/31 08:23:49;;;;;;;18.60;2.17;;;4.80;99.90;;;;;;5066869;28;20040;-76
2022/01/31 08:26:16;;;;;;;17.88;1.45;;;4.80;99.90;;;;;;5071517;28;20020;-76
2022/01/31 08:28:55;;;;;;;27.98;2.83;;;4.80;99.90;;;;;;5055081;28;20396;-77
2022/01/31 08:31:29;;;;;;;9.57;1.52;;;4.80;99.90;;;;;;5073049;28;20029;-75
2022/01/31 08:36:23;;;;;;;16.33;1.33;;;4.90;99.90;;;;;;5067890;28;20059;-75
2022/01/31 08:38:50;;;;;;;15.60;1.40;;;4.90;99.90;;;;;;5072501;28;20439;-75
2022/01/31 08:41:16;;;;;;;25.73;2.08;;;4.90;99.90;;;;;;5071363;28;20476;-76
2022/01/31 08:43:43;;;;;;;15.10;1.15;;;4.90;99.90;;;;;;5072001;28;20111;-76
2022/01/31 08:46:12;;;;;;;16.45;1.90;;;5.00;99.90;;;;;;5072619;28;20028;-78
2022/01/31 08:48:39;;;;;;;27.85;2.90;;;4.90;99.90;;;;;;5060969;28;20025;-77
2022/01/31 08:51:07;;;;;;;21.55;2.38;;;4.90;99.90;;;;;;5056813;28;20430;-76
2022/01/31 08:53:33;;;;;;;31.58;3.50;;;5.00;99.90;;;;;;5067309;28;20028;-74
2022/01/31 08:56:01;;;;;;;24.83;1.70;;;5.00;99.90;;;;;;5067170;28;20531;-74
2022/01/31 08:58:27;;;;;;;17.10;1.98;;;5.00;99.90;;;;;;5064088;28;20041;-76
2022/01/31 09:01:00;;;;;;;23.42;1.83;;;5.00;99.90;;;;;;5063445;28;20047;-76
2022/01/31 09:06:13;;;;;;;30.77;2.45;;;5.00;99.90;;;;;;5063746;28;20078;-77
2022/01/31 09:08:41;;;;;;;24.90;2.50;;;5.00;99.90;;;;;;5069419;28;20028;-77
2022/01/31 09:11:07;;;;;;;25.40;3.05;;;5.00;99.90;;;;;;5067779;28;20032;-76
2022/01/31 09:13:34;;;;;;;22.83;1.77;;;5.10;99.90;;;;;;5066332;28;20115;-76
2022/01/31 09:16:00;;;;;;;24.65;2.13;;;5.10;99.90;;;;;;5071594;28;20025;-76
2022/01/31 09:18:25;;;;;;;18.55;1.17;;;5.10;99.90;;;;;;5070307;28;20037;-76
2022/01/31 09:20:51;;;;;;;22.17;3.58;;;5.10;99.90;;;;;;5069939;28;20063;-76
2022/01/31 09:23:17;;;;;;;15.77;2.08;;;5.10;99.90;;;;;;5067350;28;20047;-76
2022/01/31 09:25:46;;;;;;;22.88;1.63;;;5.10;99.90;;;;;;5071560;28;20032;-76
2022/01/31 09:28:14;;;;;;;31.92;3.38;;;5.10;99.90;;;;;;5067415;28;20028;-74
2022/01/31 09:30:41;;;;;;;30.88;2.33;;;5.00;99.90;;;;;;5067561;28;20023;-74
2022/01/31 09:33:06;;;;;;;22.75;2.03;;;5.00;99.90;;;;;;5057414;28;20497;-75
2022/01/31 09:35:36;;;;;;;23.70;3.38;;;5.00;99.90;;;;;;5067592;28;20035;-74
2022/01/31 09:38:02;;;;;;;21.55;1.73;;;5.00;99.90;;;;;;5069598;28;20072;-75
2022/01/31 09:40:28;;;;;;;24.15;1.85;;;4.90;99.90;;;;;;5066566;28;20495;-74
2022/01/31 09:51:01;;;;;;;25.50;2.58;;;5.00;99.90;;;;;;5066680;28;20044;-75
2022/01/31 09:53:29;;;;;;;26.85;2.65;;;5.00;99.90;;;;;;5069460;28;20546;-75
2022/01/31 09:55:55;;;;;;;26.65;2.30;;;5.00;99.90;;;;;;5067328;28;20032;-74
2022/01/31 09:58:21;;;;;;;23.77;2.08;;;5.00;99.90;;;;;;5059216;28;20085;-75
2022/01/31 10:00:46;;;;;;;24.40;1.75;;;5.00;99.90;;;;;;5066164;28;20032;-76
2022/01/31 10:03:12;;;;;;;29.50;3.22;;;5.00;99.90;;;;;;5065877;28;20033;-76
2022/01/31 10:05:38;;;;;;;29.70;3.88;;;5.00;99.90;;;;;;5061673;28;20060;-77
2022/01/31 10:08:12;;;;;;;31.08;3.50;;;5.00;99.90;;;;;;5066449;28;20268;-76
2022/01/31 10:10:41;;;;;;;32.15;3.72;;;4.90;99.90;;;;;;5069256;28;20112;-76
2022/01/31 10:19:10;;;;;;;28.23;3.67;;;4.90;99.90;;;;;;5066340;28;20127;-77
2022/01/31 10:22:14;;;;;;;22.80;2.70;;;4.90;99.90;;;;;;5058138;28;20488;-77
2022/01/31 10:24:42;;;;;;;45.25;4.45;;;5.00;99.90;;;;;;5054348;28;20096;-76
2022/01/31 10:27:34;;;;;;;34.83;3.90;;;5.10;99.90;;;;;;5053547;28;20116;-77
2022/01/31 10:30:12;;;;;;;32.00;5.13;;;5.10;99.90;;;;;;5070791;28;20369;-77
2022/01/31 10:32:40;;;;;;;29.92;4.22;;;5.10;99.90;;;;;;5069658;28;20134;-77
2022/01/31 10:35:19;;;;;;;26.75;3.33;;;5.10;99.90;;;;;;5069070;28;20365;-74
2022/01/31 10:37:45;;;;;;;44.92;7.32;;;5.10;99.90;;;;;;5070263;28;20040;-77
2022/01/31 10:54:42;;;;;;;27.45;3.75;;;5.30;99.90;;;;;;5060439;28;20058;-77
2022/01/31 10:57:16;;;;;;;43.55;5.22;;;5.30;99.90;;;;;;5059418;28;20029;-77
2022/01/31 10:59:45;;;;;;;36.70;3.70;;;5.30;99.90;;;;;;5068476;28;20032;-77
2022/01/31 11:02:20;;;;;;;33.28;3.10;;;5.30;99.90;;;;;;5070235;28;20408;-76
2022/01/31 11:04:46;;;;;;;33.25;3.50;;;5.20;99.90;;;;;;5068078;28;20029;-76
2022/01/31 11:07:18;;;;;;;29.10;3.50;;;5.20;99.90;;;;;;5054923;28;20039;-76
2022/01/31 11:09:45;;;;;;;28.55;3.47;;;5.20;99.90;;;;;;5071948;28;20033;-77
2022/01/31 11:12:12;;;;;;;24.73;2.30;;;5.20;99.90;;;;;;5060966;28;20031;-77
2022/01/31 11:14:40;;;;;;;29.85;4.15;;;5.20;99.90;;;;;;5054211;28;20078;-75
2022/01/31 11:17:11;;;;;;;26.50;2.85;;;5.20;99.90;;;;;;5054450;28;20469;-77
2022/01/31 11:19:41;;;;;;;35.25;3.63;;;5.20;99.90;;;;;;5064474;28;20086;-77
2022/01/31 11:22:12;;;;;;;33.42;4.03;;;5.10;99.90;;;;;;5069019;28;20052;-77
2022/01/31 11:24:44;;;;;;;30.33;3.05;;;5.10;99.90;;;;;;5073686;28;20033;-76
2022/01/31 11:27:13;;;;;;;;;;;5.00;99.90;;;;;;5073070;28;20044;-77
2022/01/31 11:29:45;;;;;;;26.95;3.72;;;5.00;99.90;;;;;;5073657;28;19905;-76
2022/01/31 11:32:11;;;;;;;19.38;2.38;;;5.00;99.90;;;;;;5073978;28;20480;-77
2022/01/31 11:34:42;;;;;;;19.38;2.15;;;5.00;99.90;;;;;;5072950;28;20472;-75
2022/01/31 11:37:12;;;;;;;29.35;3.22;;;5.00;99.90;;;;;;5071164;28;20090;-76
2022/01/31 11:39:42;;;;;;;20.70;2.63;;;5.00;99.90;;;;;;5066415;28;20055;-77
2022/01/31 11:42:09;;;;;;;27.50;3.55;;;5.00;99.90;;;;;;5069273;28;20123;-74
2022/01/31 11:44:46;;;;;;;26.00;2.38;;;5.00;99.90;;;;;;5073002;28;20021;-75
2022/01/31 11:47:12;;;;;;;24.10;2.50;;;5.00;99.90;;;;;;5073329;28;20024;-76
2022/01/31 11:49:54;;;;;;;26.02;3.25;;;5.00;99.90;;;;;;5072804;28;20097;-76
2022/01/31 11:52:21;;;;;;;25.35;3.13;;;5.10;99.90;;;;;;5073761;28;20488;-76
2022/01/31 11:54:58;;;;;;;23.35;2.92;;;5.00;99.90;;;;;;5072700;28;20032;-75
2022/01/31 11:57:30;;;;;;;27.33;3.95;;;5.00;99.90;;;;;;5066373;28;20029;-76
2022/01/31 12:00:00;;;;;;;34.45;4.60;;;5.00;99.90;;;;;;5072916;28;20058;-77
2022/01/31 12:02:32;;;;;;;30.08;3.28;;;5.00;99.90;;;;;;5073118;28;20108;-74
2022/01/31 12:05:07;;;;;;;33.78;3.13;;;5.00;99.90;;;;;;5073048;28;20029;-75
2022/01/31 12:07:41;;;;;;;36.13;3.85;;;5.00;99.90;;;;;;5072839;28;20028;-75
2022/01/31 12:10:36;;;;;;;32.97;2.85;;;5.00;99.90;;;;;;5073004;28;20021;-76
2022/01/31 12:24:07;;;;;;;31.17;4.07;;;5.20;99.90;;;;;;5068399;28;20094;-76
2022/01/31 12:26:39;;;;;;;31.48;3.97;;;5.20;99.90;;;;;;5072412;28;20025;-77
2022/01/31 12:29:38;;;;;;;27.75;3.03;;;5.20;99.90;;;;;;5072770;28;20017;-76
2022/01/31 12:32:23;;;;;;;24.35;3.55;;;5.20;99.90;;;;;;5070887;28;20039;-76
2022/01/31 12:34:55;;;;;;;23.77;2.38;;;5.30;99.90;;;;;;5066434;28;20033;-76
2022/01/31 12:37:26;;;;;;;28.02;3.45;;;5.20;99.90;;;;;;5064848;28;20387;-76
2022/01/31 12:40:06;;;;;;;30.08;2.33;;;5.30;99.90;;;;;;5061017;28;20388;-76
2022/01/31 12:45:27;;;;;;;30.98;4.47;;;5.30;99.90;;;;;;5065539;28;20020;-76
2022/01/31 12:48:14;;;;;;;38.42;4.60;;;5.30;99.90;;;;;;5071304;28;20021;-76
2022/01/31 12:50:49;;;;;;;36.67;4.28;;;5.30;99.90;;;;;;5070336;28;20025;-75
2022/01/31 12:53:24;;;;;;;41.50;4.03;;;5.30;99.90;;;;;;5070651;28;20032;-77
2022/01/31 12:56:03;;;;;;;30.38;3.97;;;5.30;99.90;;;;;;5071947;28;20398;-76
2022/01/31 12:58:33;;;;;;;35.45;4.38;;;5.40;99.90;;;;;;5066691;28;20064;-76
2022/01/31 13:01:14;;;;;;;34.50;3.80;;;5.30;99.90;;;;;;5060531;28;20620;-77
2022/01/31 13:03:43;;;;;;;51.22;5.18;;;5.30;99.90;;;;;;5071460;28;20066;-76
2022/01/31 13:06:26;;;;;;;29.73;5.15;;;5.30;99.90;;;;;;5070164;28;20202;-76
2022/01/31 13:08:52;;;;;;;31.98;4.32;;;5.30;99.90;;;;;;5064830;28;20025;-76
2022/01/31 13:11:18;;;;;;;38.63;4.38;;;5.40;99.90;;;;;;5069685;28;20031;-77
2022/01/31 13:13:45;;;;;;;31.38;4.10;;;5.40;99.90;;;;;;5067247;28;20021;-77
2022/01/31 13:16:12;;;;;;;38.25;3.97;;;5.40;99.90;;;;;;5071844;28;20063;-77
2022/01/31 13:18:39;;;;;;;47.45;4.47;;;5.40;99.90;;;;;;5071401;28;20059;-76
2022/01/31 13:21:07;;;;;;;38.67;4.43;;;5.40;99.90;;;;;;5069572;28;20098;-75
2022/01/31 13:23:41;;;;;;;32.00;3.88;;;5.50;99.90;;;;;;5071559;28;20046;-76
2022/01/31 13:26:09;;;;;;;32.22;4.10;;;5.50;99.90;;;;;;5071092;28;20027;-75
2022/01/31 13:28:35;;;;;;;30.63;4.72;;;5.50;99.90;;;;;;5069149;28;20119;-77
2022/01/31 13:31:11;;;;;;;36.53;4.60;;;5.50;99.90;;;;;;5069677;28;20036;-77
2022/01/31 13:33:48;;;;;;;42.85;5.45;;;5.50;99.90;;;;;;5071698;28;20032;-76
2022/01/31 13:36:14;;;;;;;44.05;4.20;;;5.60;99.90;;;;;;5071236;28;20035;-76
2022/01/31 13:38:40;;;;;;;39.00;4.95;;;5.60;99.90;;;;;;5070434;28;20086;-77
2022/01/31 13:41:06;;;;;;;30.70;6.93;;;5.70;99.90;;;;;;5071118;28;20495;-77
2022/01/31 13:43:36;;;;;;;33.47;4.18;;;5.70;99.90;;;;;;5071162;28;20024;-76